Time;durP1;ratioP1;P1;durP2;ratioP2;P2;SDS_P1;SDS_P2;PMS_P1;PMS_P2;Temp;Humidity;BMP_temperature;BMP_pressure;BME280_temperature;BME280_humidity;BME280_pressure;Samples;Min_cycle;Max_cycle;Signal;HPM_P1;HPM_P2
2021/07/30 00:00:46;;;;;;;;;17.50;17.00;;;;;34.01;27.78;100600.88;144153;616;131908;-68
2021/07/30 00:03:20;;;;;;;;;19.00;19.00;;;;;34.04;27.87;100614.06;144169;660;132010;-67
2021/07/30 00:05:57;;;;;;;;;17.00;17.00;;;;;34.18;27.50;100606.81;144152;601;131908;-68
2021/07/30 00:08:31;;;;;;;;;20.50;18.75;;;;;34.15;26.85;100590.06;144171;659;131021;-68
2021/07/30 00:11:05;;;;;;;;;19.25;18.50;;;;;34.21;26.57;100603.69;144156;593;132012;-70
2021/07/30 00:13:39;;;;;;;;;20.50;19.00;;;;;34.16;26.69;100603.47;144176;612;132010;-69
2021/07/30 00:16:13;;;;;;;;;22.00;20.75;;;;;34.11;26.94;100602.41;144169;618;132908;-70
2021/07/30 00:18:47;;;;;;;;;16.75;15.25;;;;;34.07;27.25;100604.66;144172;585;131020;-69
2021/07/30 00:21:21;;;;;;;;;18.25;17.25;;;;;34.17;27.42;100596.13;144146;624;132908;-68
2021/07/30 00:23:55;;;;;;;;;17.75;17.75;;;;;34.15;26.64;100596.34;144158;570;132023;-67
2021/07/30 00:26:29;;;;;;;;;23.25;19.50;;;;;34.03;26.99;100601.50;144152;612;132018;-69
2021/07/30 00:29:03;;;;;;;;;19.50;17.25;;;;;33.86;27.10;100598.25;144177;611;131020;-69
2021/07/30 00:31:37;;;;;;;;;17.00;15.75;;;;;33.76;26.46;100605.06;144157;578;131017;-68
2021/07/30 00:34:11;;;;;;;;;22.75;19.50;;;;;33.67;26.63;100598.94;144176;598;131020;-70
2021/07/30 00:36:45;;;;;;;;;21.00;20.25;;;;;33.74;26.69;100594.38;144148;581;132020;-66
2021/07/30 00:39:18;;;;;;;;;12.75;11.25;;;;;33.70;27.12;100593.94;144174;611;131021;-70
2021/07/30 00:41:52;;;;;;;;;18.00;17.50;;;;;33.78;27.16;100601.12;144166;615;132012;-66
2021/07/30 00:44:30;;;;;;;;;18.50;12.00;;;;;33.74;26.89;100591.66;144176;630;131020;-69
2021/07/30 00:47:04;;;;;;;;;16.25;13.75;;;;;33.71;26.54;100587.44;144150;618;132012;-69
2021/07/30 00:49:39;;;;;;;;;17.25;15.75;;;;;33.77;27.01;100583.13;144158;588;131036;-67
2021/07/30 00:52:13;;;;;;;;;17.50;17.50;;;;;33.84;26.78;100584.00;144155;586;131017;-69
2021/07/30 00:54:47;;;;;;;;;17.25;15.50;;;;;33.92;26.92;100574.00;144173;572;132014;-69
2021/07/30 00:57:23;;;;;;;;;15.00;14.50;;;;;33.96;26.23;100573.41;144149;614;132014;-69
2021/07/30 00:59:57;;;;;;;;;15.25;15.25;;;;;33.92;26.10;100566.66;144171;571;132011;-68
2021/07/30 01:02:31;;;;;;;;;20.00;18.25;;;;;33.89;26.72;100573.34;144157;573;132908;-68
2021/07/30 01:05:05;;;;;;;;;17.50;16.75;;;;;33.95;26.50;100573.59;144167;569;132014;-68
2021/07/30 01:07:39;;;;;;;;;20.00;18.75;;;;;33.97;26.95;100575.09;144157;564;132014;-68
2021/07/30 01:10:14;;;;;;;;;19.75;16.50;;;;;34.03;26.08;100570.72;144175;650;131022;-70
2021/07/30 01:12:48;;;;;;;;;18.00;15.75;;;;;33.97;25.49;100566.91;144154;600;132908;-70
2021/07/30 01:15:22;;;;;;;;;18.25;16.50;;;;;33.88;25.14;100568.94;144155;570;131022;-69
2021/07/30 01:17:56;;;;;;;;;18.25;16.25;;;;;33.83;25.71;100568.72;144156;591;132907;-69
2021/07/30 01:20:31;;;;;;;;;19.00;19.00;;;;;33.67;25.83;100561.66;144177;623;131020;-69
2021/07/30 01:23:06;;;;;;;;;18.00;16.25;;;;;33.66;26.06;100562.69;144150;587;132012;-69
2021/07/30 01:25:40;;;;;;;;;22.00;19.00;;;;;33.65;26.59;100563.72;144171;677;132010;-69
2021/07/30 01:28:14;;;;;;;;;16.25;15.25;;;;;33.62;26.76;100563.31;144154;624;132908;-70
2021/07/30 01:30:48;;;;;;;;;20.00;17.00;;;;;33.69;27.33;100556.03;144168;577;132014;-68
2021/07/30 01:33:22;;;;;;;;;19.25;18.50;;;;;33.75;27.18;100557.97;144164;601;131907;-68
2021/07/30 01:35:56;;;;;;;;;20.25;20.25;;;;;33.84;27.03;100567.66;144170;722;132015;-67
2021/07/30 01:38:30;;;;;;;;;17.00;15.50;;;;;33.82;28.04;100569.75;144150;583;132012;-67
2021/07/30 01:41:10;;;;;;;;;20.25;17.25;;;;;33.91;27.94;100573.16;144157;564;131020;-67
2021/07/30 01:43:46;;;;;;;;;17.50;16.00;;;;;34.00;28.10;100584.75;144153;593;132908;-68
2021/07/30 01:46:20;;;;;;;;;24.75;20.75;;;;;33.97;28.11;100582.38;144167;644;133020;-69
2021/07/30 01:48:54;;;;;;;;;18.25;17.25;;;;;33.89;28.50;100583.41;144149;574;132012;-67
2021/07/30 01:51:28;;;;;;;;;27.75;23.75;;;;;33.95;29.00;100584.50;144176;626;131021;-66
2021/07/30 01:54:02;;;;;;;;;22.50;20.25;;;;;33.97;29.75;100583.25;144156;589;131021;-67
2021/07/30 01:56:37;;;;;;;;;23.50;22.50;;;;;33.91;30.02;100592.19;144172;592;132010;-68
2021/07/30 01:59:11;;;;;;;;;23.25;21.25;;;;;33.83;30.34;100587.78;144167;615;131908;-68
2021/07/30 02:01:44;;;;;;;;;24.25;20.25;;;;;33.72;30.88;100574.66;144168;629;132014;-68
2021/07/30 02:04:18;;;;;;;;;29.25;22.50;;;;;33.59;31.98;100583.59;144156;577;131908;-68
2021/07/30 02:06:52;;;;;;;;;30.25;25.00;;;;;33.45;33.18;100579.94;144156;564;132010;-68
2021/07/30 02:09:26;;;;;;;;;26.75;25.25;;;;;33.25;34.59;100574.31;144150;586;132012;-68
2021/07/30 02:12:00;;;;;;;;;24.75;22.50;;;;;32.93;35.41;100565.63;144173;672;132010;-67
2021/07/30 02:14:34;;;;;;;;;24.50;24.50;;;;;32.67;35.61;100553.41;144157;597;131908;-69
2021/07/30 02:17:08;;;;;;;;;23.50;22.25;;;;;32.60;35.83;100546.22;144164;683;132014;-67
2021/07/30 02:19:42;;;;;;;;;25.75;24.50;;;;;32.65;35.22;100539.16;144158;594;132908;-68
2021/07/30 02:22:16;;;;;;;;;24.00;18.25;;;;;32.72;34.91;100539.25;144177;664;131021;-68
2021/07/30 02:24:50;;;;;;;;;18.75;18.75;;;;;32.75;34.48;100544.31;144161;582;132012;-69
2021/07/30 02:27:24;;;;;;;;;24.00;20.25;;;;;32.79;33.93;100536.63;144173;627;132012;-70
2021/07/30 02:29:59;;;;;;;;;22.75;21.25;;;;;32.89;33.37;100532.53;144151;627;131908;-69
2021/07/30 02:32:33;;;;;;;;;23.00;22.25;;;;;33.06;32.92;100543.16;144155;614;131049;-70
2021/07/30 02:35:09;;;;;;;;;22.00;20.50;;;;;33.22;32.77;100548.31;144156;593;131908;-70
2021/07/30 02:37:43;;;;;;;;;26.00;22.00;;;;;33.40;32.26;100544.31;144172;587;132010;-70
2021/07/30 02:40:17;;;;;;;;;19.25;18.25;;;;;33.55;32.21;100541.50;144153;590;132908;-71
2021/07/30 02:42:51;;;;;;;;;23.00;20.50;;;;;33.52;31.77;100555.50;144178;603;131020;-70
2021/07/30 02:45:25;;;;;;;;;24.75;22.00;;;;;33.56;31.09;100544.00;144154;601;132019;-70
2021/07/30 02:47:59;;;;;;;;;21.75;17.75;;;;;33.68;30.73;100547.03;144164;564;132014;-70
2021/07/30 02:50:33;;;;;;;;;19.75;18.50;;;;;33.72;30.10;100553.75;144160;589;132908;-70
2021/07/30 02:53:07;;;;;;;;;22.50;22.00;;;;;33.69;29.16;100550.56;144175;574;131020;-70
2021/07/30 02:55:41;;;;;;;;;21.50;19.50;;;;;33.65;28.91;100563.72;144152;588;131908;-68
2021/07/30 02:58:15;;;;;;;;;20.00;19.00;;;;;33.57;28.81;100564.75;144158;623;131014;-68
2021/07/30 03:00:49;;;;;;;;;26.25;22.50;;;;;33.45;28.75;100568.19;144150;582;132014;-69
2021/07/30 03:03:23;;;;;;;;;21.75;18.75;;;;;33.23;28.93;100562.75;144171;575;131020;-68
2021/07/30 03:05:57;;;;;;;;;23.00;19.75;;;;;33.18;29.14;100571.50;144151;576;132014;-70
2021/07/30 03:08:32;;;;;;;;;21.50;19.25;;;;;33.09;30.78;100569.94;144173;565;131020;-69
2021/07/30 03:11:06;;;;;;;;;24.50;22.50;;;;;32.90;31.31;100566.00;144156;583;132908;-70
2021/07/30 03:13:40;;;;;;;;;17.75;16.75;;;;;32.77;30.46;100564.00;144175;609;131020;-69
2021/07/30 03:16:14;;;;;;;;;26.50;23.00;;;;;32.74;30.87;100575.25;144167;590;131907;-69
2021/07/30 03:18:48;;;;;;;;;20.75;19.25;;;;;32.75;31.02;100573.38;144174;676;131021;-69
2021/07/30 03:21:22;;;;;;;;;20.75;18.00;;;;;32.83;31.15;100571.38;144151;574;132908;-67
2021/07/30 03:23:56;;;;;;;;;19.75;18.50;;;;;32.85;30.89;100577.47;144155;571;132010;-68
2021/07/30 03:26:40;;;;;;;;;21.50;18.00;;;;;32.78;29.96;100584.72;144152;585;131897;-68
2021/07/30 03:29:14;;;;;;;;;24.75;20.75;;;;;32.58;29.90;100578.19;144175;594;131021;-67
2021/07/30 03:31:48;;;;;;;;;21.00;20.75;;;;;32.52;30.10;100574.31;144148;581;132012;-67
2021/07/30 03:34:22;;;;;;;;;25.50;20.75;;;;;32.56;30.10;100573.78;144176;566;131021;-66
2021/07/30 03:36:56;;;;;;;;;23.25;18.25;;;;;32.61;29.40;100580.50;144154;596;131905;-71
2021/07/30 03:39:32;;;;;;;;;21.75;19.25;;;;;32.62;29.74;100585.75;144171;573;132004;-71
2021/07/30 03:42:06;;;;;;;;;20.50;20.50;;;;;32.68;29.28;100579.56;144163;578;131906;-71
2021/07/30 03:44:43;;;;;;;;;22.50;20.75;;;;;32.69;29.50;100574.94;144178;588;132008;-71
2021/07/30 03:47:17;;;;;;;;;21.00;20.00;;;;;32.83;29.33;100581.41;144149;621;132014;-71
2021/07/30 03:49:51;;;;;;;;;20.25;20.25;;;;;32.80;28.54;100582.63;144156;711;132008;-68
2021/07/30 03:52:25;;;;;;;;;19.25;18.25;;;;;32.79;28.88;100586.37;144152;584;132012;-69
2021/07/30 03:54:59;;;;;;;;;17.50;17.25;;;;;32.83;29.05;100575.97;144176;582;131020;-68
2021/07/30 03:57:34;;;;;;;;;19.50;17.75;;;;;32.79;29.27;100583.66;144152;643;131906;-67
2021/07/30 04:00:08;;;;;;;;;19.50;17.00;;;;;32.78;29.29;100584.72;144177;756;131020;-67
2021/07/30 04:02:42;;;;;;;;;27.50;21.25;;;;;32.84;29.32;100591.25;144158;611;132906;-67
2021/07/30 04:05:16;;;;;;;;;22.50;22.50;;;;;32.79;29.01;100577.38;144175;564;131020;-67
2021/07/30 04:07:50;;;;;;;;;22.25;19.50;;;;;32.72;29.19;100580.03;144165;588;131905;-68
2021/07/30 04:10:26;;;;;;;;;20.00;20.00;;;;;32.74;29.20;100580.69;144171;584;132008;-67
2021/07/30 04:13:00;;;;;;;;;22.75;20.25;;;;;32.79;29.38;100582.81;144154;617;132906;-68
2021/07/30 04:15:36;;;;;;;;;23.50;20.75;;;;;32.79;29.28;100580.09;144156;613;132012;-66
2021/07/30 04:18:10;;;;;;;;;18.75;18.75;;;;;32.76;30.07;100583.22;144150;640;132018;-67
2021/07/30 04:20:44;;;;;;;;;20.75;19.75;;;;;32.79;30.03;100580.94;144171;564;132010;-66
2021/07/30 04:23:18;;;;;;;;;22.75;21.75;;;;;32.80;30.24;100588.06;144154;606;131020;-66
2021/07/30 04:25:52;;;;;;;;;19.00;18.75;;;;;32.79;30.07;100586.37;144174;581;132012;-69
2021/07/30 04:28:26;;;;;;;;;18.75;16.50;;;;;32.94;30.01;100588.22;144153;634;132012;-68
2021/07/30 04:31:00;;;;;;;;;22.25;21.75;;;;;33.02;30.15;100586.19;144175;600;131032;-68
2021/07/30 04:33:37;;;;;;;;;24.75;21.00;;;;;33.15;29.76;100590.06;144165;714;131906;-69
2021/07/30 04:36:18;;;;;;;;;20.00;18.00;;;;;33.22;29.68;100594.56;144172;694;131021;-70
2021/07/30 04:38:52;;;;;;;;;22.25;19.75;;;;;33.30;30.27;100596.34;144156;607;131906;-69
2021/07/30 04:41:25;;;;;;;;;26.00;22.25;;;;;33.37;30.22;100596.41;144159;577;132010;-69
2021/07/30 04:44:00;;;;;;;;;18.75;18.75;;;;;33.53;30.29;100593.41;144146;576;132014;-68
2021/07/30 04:46:34;;;;;;;;;20.25;18.75;;;;;33.67;30.12;100604.38;144172;566;132010;-68
2021/07/30 04:49:07;;;;;;;;;23.75;20.00;;;;;33.45;30.42;100601.69;144159;610;131906;-71
2021/07/30 04:51:41;;;;;;;;;18.00;18.00;;;;;33.75;30.05;100601.50;144174;584;131020;-67
2021/07/30 04:54:15;;;;;;;;;23.25;21.25;;;;;33.90;30.42;100598.69;144156;616;132012;-67
2021/07/30 04:56:49;;;;;;;;;18.50;18.50;;;;;34.11;30.08;100599.69;144176;608;131021;-67
2021/07/30 04:59:23;;;;;;;;;21.75;21.75;;;;;34.23;29.71;100598.06;144166;640;132906;-68
2021/07/30 05:01:57;;;;;;;;;24.00;22.75;;;;;34.17;29.68;100591.50;144174;617;131021;-68
2021/07/30 05:04:31;;;;;;;;;20.00;17.00;;;;;34.23;29.31;100595.34;144160;625;131906;-68
2021/07/30 05:07:05;;;;;;;;;28.00;22.25;;;;;34.28;29.27;100597.44;144158;622;132014;-68
2021/07/30 05:09:39;;;;;;;;;19.75;19.50;;;;;34.40;30.01;100604.03;144149;597;132020;-68
2021/07/30 05:12:16;;;;;;;;;24.25;19.75;;;;;34.63;29.05;100602.87;144169;601;132014;-67
2021/07/30 05:14:50;;;;;;;;;20.00;19.50;;;;;34.73;28.83;100603.31;144150;600;132905;-67
2021/07/30 05:17:24;;;;;;;;;24.25;20.25;;;;;34.78;29.42;100600.81;144172;622;132015;-67
2021/07/30 05:19:58;;;;;;;;;22.50;21.00;;;;;35.01;29.06;100603.19;144157;726;131906;-69
2021/07/30 05:22:32;;;;;;;;;24.75;22.50;;;;;35.09;28.87;100613.09;144171;684;132010;-68
2021/07/30 05:25:06;;;;;;;;;24.00;21.50;;;;;35.23;29.12;100600.28;144169;576;132012;-68
2021/07/30 05:27:40;;;;;;;;;25.50;23.00;;;;;35.08;29.71;100609.50;144176;582;131020;-68
2021/07/30 05:30:15;;;;;;;;;23.75;19.75;;;;;34.87;30.24;100610.50;144154;680;131035;-69
2021/07/30 05:32:49;;;;;;;;;21.50;20.75;;;;;34.74;29.80;100618.62;144160;570;131021;-67
2021/07/30 05:35:23;;;;;;;;;20.00;20.00;;;;;34.98;29.94;100617.25;144153;607;132020;-66
2021/07/30 05:37:57;;;;;;;;;24.75;22.25;;;;;35.17;29.29;100618.34;144173;598;132008;-66
2021/07/30 05:40:31;;;;;;;;;24.50;20.25;;;;;34.96;30.48;100618.50;144155;622;131019;-67
2021/07/30 05:43:05;;;;;;;;;19.25;17.25;;;;;35.53;29.89;100617.13;144169;572;132014;-67
2021/07/30 05:45:39;;;;;;;;;26.25;24.75;;;;;35.84;29.77;100625.72;144155;587;132906;-66
2021/07/30 05:48:13;;;;;;;;;25.25;24.25;;;;;36.20;29.84;100624.41;144170;564;132014;-66
2021/07/30 05:50:52;;;;;;;;;29.50;26.75;;;;;36.36;29.23;100634.03;144167;668;132012;-66
2021/07/30 05:53:26;;;;;;;;;26.00;22.00;;;;;36.38;29.30;100629.19;144172;600;132015;-67
2021/07/30 05:56:07;;;;;;;;;22.00;22.00;;;;;36.67;29.92;100635.19;144150;580;132012;-66
2021/07/30 05:58:41;;;;;;;;;27.00;23.75;;;;;36.74;29.79;100630.50;144157;625;131020;-67
2021/07/30 06:01:18;;;;;;;;;31.75;25.25;;;;;36.80;29.99;100626.94;144148;641;132906;-68
2021/07/30 06:03:52;;;;;;;;;28.25;25.50;;;;;36.32;30.63;100639.09;144171;577;132014;-68
2021/07/30 06:06:26;;;;;;;;;29.00;25.25;;;;;36.35;30.67;100626.91;144149;577;132906;-66
2021/07/30 06:09:00;;;;;;;;;28.50;26.75;;;;;36.52;29.70;100633.53;144170;610;132011;-66
2021/07/30 06:11:34;;;;;;;;;24.50;24.00;;;;;36.81;29.12;100627.75;144156;787;132905;-67
2021/07/30 06:14:08;;;;;;;;;25.00;23.00;;;;;37.07;28.71;100627.63;144175;563;131020;-67
2021/07/30 06:16:42;;;;;;;;;27.50;27.00;;;;;36.47;28.98;100627.91;144167;601;132012;-67
2021/07/30 06:19:16;;;;;;;;;26.25;24.00;;;;;37.11;28.46;100625.25;144173;575;131020;-68
2021/07/30 06:21:50;;;;;;;;;29.00;25.50;;;;;37.28;28.21;100630.19;144158;569;132906;-67
2021/07/30 06:24:24;;;;;;;;;31.00;27.00;;;;;37.26;28.53;100627.69;144158;604;131021;-67
2021/07/30 06:26:58;;;;;;;;;28.50;26.75;;;;;37.56;28.49;100622.41;144153;690;132021;-68
2021/07/30 06:29:32;;;;;;;;;24.50;23.50;;;;;37.73;27.96;100628.16;144173;649;132010;-67
2021/07/30 06:32:10;;;;;;;;;28.00;27.00;;;;;36.80;28.89;100626.06;144153;591;132021;-67
2021/07/30 06:34:44;;;;;;;;;25.25;24.75;;;;;36.58;30.49;100620.91;144169;585;131020;-67
2021/07/30 06:37:18;;;;;;;;;28.75;27.00;;;;;36.44;30.82;100625.59;144152;625;131906;-66
2021/07/30 06:39:52;;;;;;;;;28.00;26.75;;;;;36.75;31.04;100627.53;144177;564;131021;-67
2021/07/30 06:42:26;;;;;;;;;28.50;26.50;;;;;37.08;30.39;100623.78;144167;569;132012;-67
2021/07/30 06:45:00;;;;;;;;;28.25;27.50;;;;;37.28;30.08;100628.31;144173;617;132014;-67
2021/07/30 06:47:34;;;;;;;;;31.00;28.50;;;;;37.80;28.69;100628.13;144155;611;132906;-67
2021/07/30 06:50:08;;;;;;;;;30.00;27.75;;;;;36.97;30.61;100629.16;144156;625;132010;-66
2021/07/30 06:52:42;;;;;;;;;32.25;29.00;;;;;36.62;30.77;100632.25;144157;590;131906;-67
2021/07/30 06:55:16;;;;;;;;;33.75;28.75;;;;;37.19;30.77;100622.25;144172;570;132010;-67
2021/07/30 06:57:50;;;;;;;;;34.00;29.50;;;;;36.96;30.89;100625.56;144153;563;131020;-67
2021/07/30 07:00:24;;;;;;;;;30.00;27.00;;;;;36.86;30.72;100628.78;144177;608;131020;-67
2021/07/30 07:02:58;;;;;;;;;31.75;28.75;;;;;37.25;29.59;100634.22;144149;653;132906;-67
2021/07/30 07:05:32;;;;;;;;;29.25;27.25;;;;;37.59;29.66;100632.94;144173;576;131020;-66
2021/07/30 07:08:06;;;;;;;;;37.25;31.75;;;;;37.97;29.40;100633.03;144163;580;131906;-66
2021/07/30 07:10:40;;;;;;;;;24.25;23.50;;;;;37.69;27.90;100631.59;144172;571;131023;-67
2021/07/30 07:13:15;;;;;;;;;34.25;30.25;;;;;37.91;27.85;100630.13;144152;563;132012;-67
2021/07/30 07:15:50;;;;;;;;;33.75;29.00;;;;;38.35;28.12;100635.56;144156;622;132010;-67
2021/07/30 07:18:24;;;;;;;;;33.50;30.00;;;;;38.19;28.53;100631.50;144160;616;131475;-66
2021/07/30 07:21:00;;;;;;;;;36.00;30.75;;;;;38.50;28.66;100631.59;144176;565;131020;-66
2021/07/30 07:23:34;;;;;;;;;29.75;27.00;;;;;37.85;29.28;100642.00;144148;626;132906;-66
2021/07/30 07:26:08;;;;;;;;;31.25;29.00;;;;;38.06;29.39;100637.97;144176;597;132008;-65
2021/07/30 07:28:42;;;;;;;;;33.00;30.50;;;;;37.07;29.91;100634.97;144155;581;132012;-65
2021/07/30 07:31:16;;;;;;;;;32.50;30.00;;;;;36.90;30.26;100630.03;144175;628;132010;-64
2021/07/30 07:33:50;;;;;;;;;32.75;29.00;;;;;37.35;31.12;100625.56;144163;682;132016;-65
2021/07/30 07:36:24;;;;;;;;;35.00;30.25;;;;;38.01;30.32;100639.72;144172;778;131022;-65
2021/07/30 07:38:58;;;;;;;;;31.50;29.00;;;;;38.06;30.03;100642.62;144155;629;132018;-65
2021/07/30 07:41:33;;;;;;;;;35.00;29.00;;;;;38.18;29.70;100628.97;144158;621;131022;-66
2021/07/30 07:44:08;;;;;;;;;32.25;29.75;;;;;38.33;29.67;100636.84;144156;655;131906;-64
2021/07/30 07:46:41;;;;;;;;;34.00;29.75;;;;;38.66;29.17;100628.22;144177;569;131010;-66
2021/07/30 07:49:22;;;;;;;;;31.25;28.50;;;;;38.71;29.57;100628.41;144153;628;132012;-65
2021/07/30 07:51:56;;;;;;;;;31.75;29.25;;;;;38.91;29.18;100636.31;144171;635;132010;-65
2021/07/30 07:54:31;;;;;;;;;27.00;26.75;;;;;39.06;29.64;100624.09;144152;687;131906;-65
2021/07/30 07:57:07;;;;;;;;;28.50;26.25;;;;;39.24;29.41;100626.78;144171;580;132010;-65
2021/07/30 07:59:42;;;;;;;;;27.50;26.75;;;;;39.62;28.23;100626.63;144162;620;132013;-64
2021/07/30 08:02:16;;;;;;;;;29.75;25.75;;;;;39.68;28.17;100631.97;144167;593;132010;-65
2021/07/30 08:04:50;;;;;;;;;31.50;28.25;;;;;39.68;27.52;100620.19;143676;564;460132;-65
2021/07/30 08:07:24;;;;;;;;;28.75;27.25;;;;;39.30;28.83;100624.16;144155;646;132012;-65
2021/07/30 08:09:58;;;;;;;;;32.25;29.50;;;;;39.28;29.01;100623.59;144146;745;131903;-65
2021/07/30 08:12:37;;;;;;;;;33.50;29.75;;;;;39.71;28.73;100614.19;144174;596;131020;-65
2021/07/30 08:15:14;;;;;;;;;32.75;28.75;;;;;39.66;28.67;100616.84;144153;697;131020;-66
2021/07/30 08:17:52;;;;;;;;;33.25;29.50;;;;;40.40;27.83;100614.34;144171;641;131022;-68
2021/07/30 08:20:28;;;;;;;;;32.25;28.25;;;;;40.74;26.57;100614.47;144153;635;131904;-65
2021/07/30 08:23:02;;;;;;;;;30.75;28.25;;;;;40.10;27.96;100614.56;144172;598;131026;-65
2021/07/30 08:25:36;;;;;;;;;30.00;28.00;;;;;40.88;26.22;100609.50;144162;601;131999;-65
2021/07/30 08:28:10;;;;;;;;;30.75;28.00;;;;;40.59;26.16;100600.44;144171;645;131020;-65
2021/07/30 08:30:48;;;;;;;;;31.75;29.25;;;;;40.98;24.38;100594.28;144144;589;132904;-66
2021/07/30 08:33:21;;;;;;;;;28.25;27.25;;;;;40.69;24.58;100602.56;144153;637;131020;-65
2021/07/30 08:36:02;;;;;;;;;34.00;28.50;;;;;40.67;25.03;100597.31;144154;639;131020;-65
2021/07/30 08:38:36;;;;;;;;;28.75;27.00;;;;;40.97;24.92;100593.47;144175;579;131021;-66
2021/07/30 08:41:12;;;;;;;;;29.75;27.75;;;;;40.72;26.90;100591.03;144151;635;132012;-66
2021/07/30 08:43:46;;;;;;;;;26.25;25.00;;;;;40.74;27.45;100595.22;144171;571;132010;-66
2021/07/30 08:46:20;;;;;;;;;30.25;28.00;;;;;40.84;26.93;100600.06;144151;584;132010;-66
2021/07/30 08:48:55;;;;;;;;;26.25;25.75;;;;;41.00;27.24;100592.97;144168;602;132012;-65
2021/07/30 08:51:32;;;;;;;;;27.00;25.50;;;;;41.03;26.69;100586.94;144161;632;132013;-65
2021/07/30 08:54:06;;;;;;;;;28.50;26.25;;;;;40.56;27.38;100596.28;144173;589;131021;-65
2021/07/30 08:56:41;;;;;;;;;24.50;22.50;;;;;40.78;26.89;100579.91;144149;581;132010;-65
2021/07/30 08:59:16;;;;;;;;;25.50;23.75;;;;;41.04;26.41;100576.78;144154;569;132013;-66
2021/07/30 09:01:57;;;;;;;;;26.25;22.50;;;;;40.90;26.12;100570.72;144150;569;132010;-66
2021/07/30 09:04:32;;;;;;;;;23.50;22.25;;;;;41.20;25.35;100578.72;144165;569;132008;-65
2021/07/30 09:07:06;;;;;;;;;26.25;25.75;;;;;41.18;24.71;100577.28;144154;583;131904;-65
2021/07/30 09:09:40;;;;;;;;;23.25;21.75;;;;;40.69;25.72;100572.28;144173;630;131029;-65
2021/07/30 09:12:15;;;;;;;;;22.25;20.25;;;;;41.30;23.55;100571.69;144157;608;131904;-65
2021/07/30 09:14:49;;;;;;;;;23.00;20.50;;;;;41.03;23.39;100570.44;144177;594;131020;-65
2021/07/30 09:17:42;;;;;;;;;26.50;23.50;;;;;40.47;23.92;100564.69;144162;592;131021;-66
2021/07/30 09:20:16;;;;;;;;;21.25;21.25;;;;;40.82;23.62;100562.87;144168;599;132008;-66
2021/07/30 09:22:55;;;;;;;;;23.50;23.00;;;;;40.98;21.95;100555.75;144149;580;132010;-64
2021/07/30 09:25:41;;;;;;;;;19.25;17.75;;;;;41.23;21.27;100552.59;144155;574;132008;-66
2021/07/30 09:28:15;;;;;;;;;25.50;24.50;;;;;40.98;22.12;100550.25;144156;638;131904;-65
2021/07/30 09:31:04;;;;;;;;;22.75;21.75;;;;;40.72;23.26;100538.78;144167;569;132012;-64
2021/07/30 09:33:59;;;;;;;;;24.75;21.25;;;;;40.71;23.67;100539.84;144153;620;132010;-65
2021/07/30 09:36:33;;;;;;;;;27.00;22.50;;;;;40.60;23.85;100541.63;144174;577;131022;-65
2021/07/30 09:39:07;;;;;;;;;20.50;19.75;;;;;40.72;24.19;100538.78;144153;569;131906;-65
2021/07/30 09:41:41;;;;;;;;;22.75;20.75;;;;;41.00;23.05;100542.59;144172;590;131020;-66
2021/07/30 09:44:16;;;;;;;;;25.00;22.50;;;;;40.63;23.08;100532.84;144167;592;132906;-65
2021/07/30 09:47:15;;;;;;;;;22.25;20.25;;;;;41.53;21.66;100532.97;144169;614;132010;-65
2021/07/30 09:49:52;;;;;;;;;23.75;23.00;;;;;41.24;21.45;100527.56;144153;606;131906;-65
2021/07/30 09:52:33;;;;;;;;;22.50;21.25;;;;;41.36;21.70;100533.00;144154;570;132008;-65
2021/07/30 09:55:13;;;;;;;;;23.25;21.50;;;;;41.73;21.46;100528.81;144146;566;132012;-65
2021/07/30 09:57:48;;;;;;;;;25.25;21.50;;;;;41.67;21.14;100532.59;144175;640;131020;-66
2021/07/30 10:00:22;;;;;;;;;19.75;18.50;;;;;41.34;21.13;100528.78;144153;586;131906;-65
2021/07/30 10:02:57;;;;;;;;;20.75;20.00;;;;;41.40;20.91;100523.12;144176;628;131020;-66
2021/07/30 10:05:34;;;;;;;;;22.00;22.00;;;;;41.26;20.28;100519.88;144149;612;132016;-66
2021/07/30 10:08:09;;;;;;;;;24.25;21.50;;;;;40.86;21.01;100504.38;144168;592;132012;-65
2021/07/30 10:10:45;;;;;;;;;20.25;19.00;;;;;41.32;19.97;100517.22;144160;613;132906;-66
2021/07/30 10:13:25;;;;;;;;;21.00;21.00;;;;;41.32;20.58;100512.53;144174;569;132010;-65
2021/07/30 10:15:59;;;;;;;;;22.25;19.75;;;;;41.29;20.79;100504.78;144153;565;132010;-66
2021/07/30 10:18:32;;;;;;;;;21.00;19.25;;;;;40.98;20.85;100500.72;144155;608;132006;-65
2021/07/30 10:21:07;;;;;;;;;21.00;20.00;;;;;41.01;20.76;100502.97;144150;587;132012;-66
2021/07/30 10:23:43;;;;;;;;;18.50;18.50;;;;;41.24;19.99;100493.69;144170;566;132020;-65
2021/07/30 10:26:21;;;;;;;;;20.25;18.50;;;;;41.38;20.17;100494.19;144157;585;131906;-65
2021/07/30 10:28:55;;;;;;;;;19.25;17.25;;;;;41.57;19.95;100487.31;144173;583;132010;-66
2021/07/30 10:31:55;;;;;;;;;31.25;26.50;;;;;41.53;19.66;100469.62;144151;628;132010;-66
2021/07/30 10:34:52;;;;;;;;;19.75;19.75;;;;;41.65;19.87;100466.72;144175;640;132008;-65
2021/07/30 10:37:40;;;;;;;;;24.00;21.75;;;;;42.08;18.84;100464.22;144161;570;132010;-65
2021/07/30 10:40:21;;;;;;;;;18.00;17.00;;;;;42.03;18.95;100462.25;144170;794;132012;-66
2021/07/30 10:43:17;;;;;;;;;22.25;21.00;;;;;42.32;18.26;100458.44;144153;598;132010;-66
2021/07/30 10:46:15;;;;;;;;;20.50;20.00;;;;;41.91;18.41;100442.25;144157;581;132008;-65
2021/07/30 10:48:53;;;;;;;;;27.50;23.75;;;;;42.08;18.62;100451.28;144151;636;132010;-65
2021/07/30 10:51:32;;;;;;;;;22.50;21.00;;;;;42.30;18.47;100446.84;144178;599;131021;-65
2021/07/30 10:54:10;;;;;;;;;19.00;18.50;;;;;42.55;17.97;100452.56;144150;569;132012;-66
2021/07/30 10:56:45;;;;;;;;;22.50;20.25;;;;;42.57;18.30;100439.34;144171;652;131020;-64
2021/07/30 10:59:21;;;;;;;;;21.75;20.50;;;;;42.27;18.63;100440.75;144155;580;132906;-64
2021/07/30 11:01:59;;;;;;;;;20.75;18.00;;;;;41.96;17.94;100438.75;144170;601;132020;-65
2021/07/30 11:04:36;;;;;;;;;19.75;19.00;;;;;42.14;17.84;100429.28;144163;628;131906;-65
2021/07/30 11:07:10;;;;;;;;;18.50;17.75;;;;;42.44;17.42;100423.22;144170;591;132012;-66
2021/07/30 11:09:44;;;;;;;;;25.50;21.00;;;;;42.13;18.16;100427.59;144151;586;132020;-66
2021/07/30 11:12:19;;;;;;;;;20.50;19.75;;;;;42.22;17.40;100418.62;144158;601;131020;-66
2021/07/30 11:14:53;;;;;;;;;20.00;19.00;;;;;42.14;17.19;100413.56;144155;564;131906;-65
2021/07/30 11:17:29;;;;;;;;;19.00;17.25;;;;;42.03;17.29;100406.28;144174;599;132008;-66
2021/07/30 11:20:06;;;;;;;;;22.00;18.25;;;;;41.60;17.16;100409.66;144155;611;132010;-66
2021/07/30 11:22:41;;;;;;;;;19.25;18.00;;;;;40.90;17.11;100406.47;144175;621;132008;-65
2021/07/30 11:25:16;;;;;;;;;18.25;17.00;;;;;41.28;17.08;100404.84;144151;635;132010;-65
2021/07/30 11:27:51;;;;;;;;;18.75;18.00;;;;;41.24;16.73;100403.69;144177;700;131020;-65
2021/07/30 11:30:31;;;;;;;;;18.75;18.25;;;;;40.98;17.75;100410.72;144157;579;132906;-65
2021/07/30 11:33:06;;;;;;;;;17.00;13.75;;;;;40.88;17.11;100396.78;144177;584;131020;-66
2021/07/30 11:35:44;;;;;;;;;19.75;19.50;;;;;40.75;17.42;100393.31;144148;619;132012;-65
2021/07/30 11:38:18;;;;;;;;;19.25;16.00;;;;;40.30;17.25;100385.97;144153;637;132008;-66